sensor_id;sensor_type;location;lat;lon;timestamp;P1;durP1;ratioP1;P2;durP2;ratioP2
65477;SDS011;53678;39.642;22.430;2022-10-31T00:02:18;41.72;;;22.40;;
65477;SDS011;53678;39.642;22.430;2022-10-31T00:04:44;38.60;;;22.30;;
65477;SDS011;53678;39.642;22.430;2022-10-31T00:07:11;34.60;;;21.05;;
65477;SDS011;53678;39.642;22.430;2022-10-31T00:09:38;37.83;;;21.45;;
65477;SDS011;53678;39.642;22.430;2022-10-31T00:12:04;39.30;;;21.25;;
65477;SDS011;53678;39.642;22.430;2022-10-31T00:14:30;39.70;;;20.95;;
65477;SDS011;53678;39.642;22.430;2022-10-31T00:16:56;37.30;;;22.58;;
65477;SDS011;53678;39.642;22.430;2022-10-31T00:19:24;40.85;;;20.92;;
65477;SDS011;53678;39.642;22.430;2022-10-31T00:21:51;45.88;;;22.05;;
65477;SDS011;53678;39.642;22.430;2022-10-31T00:24:18;40.00;;;22.88;;
65477;SDS011;53678;39.642;22.430;2022-10-31T00:26:44;45.75;;;26.13;;
65477;SDS011;53678;39.642;22.430;2022-10-31T00:29:11;45.22;;;22.33;;
65477;SDS011;53678;39.642;22.430;2022-10-31T00:31:39;39.10;;;20.95;;
65477;SDS011;53678;39.642;22.430;2022-10-31T00:34:04;34.40;;;19.13;;
65477;SDS011;53678;39.642;22.430;2022-10-31T00:36:31;28.45;;;18.33;;
65477;SDS011;53678;39.642;22.430;2022-10-31T00:38:57;36.67;;;20.48;;
65477;SDS011;53678;39.642;22.430;2022-10-31T00:41:23;32.97;;;18.95;;
65477;SDS011;53678;39.642;22.430;2022-10-31T00:43:50;35.78;;;20.52;;
65477;SDS011;53678;39.642;22.430;2022-10-31T00:46:17;38.20;;;20.73;;
65477;SDS011;53678;39.642;22.430;2022-10-31T00:48:44;37.58;;;21.98;;
65477;SDS011;53678;39.642;22.430;2022-10-31T00:51:11;35.80;;;21.08;;
65477;SDS011;53678;39.642;22.430;2022-10-31T00:53:39;35.92;;;20.08;;
65477;SDS011;53678;39.642;22.430;2022-10-31T00:56:05;31.65;;;19.00;;
65477;SDS011;53678;39.642;22.430;2022-10-31T00:58:33;31.30;;;19.42;;
65477;SDS011;53678;39.642;22.430;2022-10-31T01:01:00;36.13;;;18.60;;
65477;SDS011;53678;39.642;22.430;2022-10-31T01:03:30;36.97;;;20.65;;
65477;SDS011;53678;39.642;22.430;2022-10-31T01:06:08;36.08;;;19.48;;
65477;SDS011;53678;39.642;22.430;2022-10-31T01:08:36;32.00;;;19.02;;
65477;SDS011;53678;39.642;22.430;2022-10-31T01:11:17;35.92;;;19.20;;
65477;SDS011;53678;39.642;22.430;2022-10-31T01:13:49;40.20;;;19.88;;
65477;SDS011;53678;39.642;22.430;2022-10-31T01:16:17;36.08;;;20.13;;
65477;SDS011;53678;39.642;22.430;2022-10-31T01:18:46;40.97;;;20.15;;
65477;SDS011;53678;39.642;22.430;2022-10-31T01:21:16;33.78;;;20.52;;
65477;SDS011;53678;39.642;22.430;2022-10-31T01:23:44;41.28;;;20.73;;
65477;SDS011;53678;39.642;22.430;2022-10-31T01:26:13;38.80;;;20.98;;
65477;SDS011;53678;39.642;22.430;2022-10-31T01:28:56;41.38;;;21.27;;
65477;SDS011;53678;39.642;22.430;2022-10-31T01:31:34;34.42;;;21.92;;
65477;SDS011;53678;39.642;22.430;2022-10-31T01:34:03;34.95;;;21.55;;
65477;SDS011;53678;39.642;22.430;2022-10-31T01:36:31;44.20;;;22.30;;
65477;SDS011;53678;39.642;22.430;2022-10-31T01:39:03;34.42;;;20.42;;
65477;SDS011;53678;39.642;22.430;2022-10-31T01:41:31;41.97;;;22.77;;
65477;SDS011;53678;39.642;22.430;2022-10-31T01:46:50;33.17;;;19.67;;
65477;SDS011;53678;39.642;22.430;2022-10-31T01:49:46;36.28;;;21.65;;
65477;SDS011;53678;39.642;22.430;2022-10-31T01:52:58;45.22;;;20.95;;
65477;SDS011;53678;39.642;22.430;2022-10-31T01:55:09;35.85;;;21.27;;
65477;SDS011;53678;39.642;22.430;2022-10-31T01:57:40;38.13;;;18.88;;
65477;SDS011;53678;39.642;22.430;2022-10-31T02:00:11;32.13;;;19.92;;
65477;SDS011;53678;39.642;22.430;2022-10-31T02:02:43;35.83;;;21.30;;
65477;SDS011;53678;39.642;22.430;2022-10-31T02:05:16;31.85;;;20.42;;
65477;SDS011;53678;39.642;22.430;2022-10-31T02:10:31;34.35;;;22.83;;
65477;SDS011;53678;39.642;22.430;2022-10-31T02:13:00;36.75;;;21.70;;
65477;SDS011;53678;39.642;22.430;2022-10-31T02:15:29;34.03;;;22.23;;
65477;SDS011;53678;39.642;22.430;2022-10-31T02:17:56;36.50;;;21.77;;
65477;SDS011;53678;39.642;22.430;2022-10-31T02:20:23;41.35;;;23.15;;
65477;SDS011;53678;39.642;22.430;2022-10-31T02:23:03;42.45;;;24.25;;
65477;SDS011;53678;39.642;22.430;2022-10-31T02:32:33;40.75;;;23.80;;
65477;SDS011;53678;39.642;22.430;2022-10-31T02:38:02;47.92;;;24.05;;
65477;SDS011;53678;39.642;22.430;2022-10-31T02:49:36;40.97;;;23.33;;
65477;SDS011;53678;39.642;22.430;2022-10-31T02:52:41;40.13;;;22.70;;
65477;SDS011;53678;39.642;22.430;2022-10-31T02:57:36;35.90;;;22.88;;
65477;SDS011;53678;39.642;22.430;2022-10-31T03:00:06;38.28;;;22.25;;
65477;SDS011;53678;39.642;22.430;2022-10-31T03:05:22;37.53;;;23.35;;
65477;SDS011;53678;39.642;22.430;2022-10-31T03:11:00;42.55;;;24.85;;
65477;SDS011;53678;39.642;22.430;2022-10-31T03:13:44;42.03;;;23.45;;
65477;SDS011;53678;39.642;22.430;2022-10-31T03:16:31;38.72;;;21.90;;
65477;SDS011;53678;39.642;22.430;2022-10-31T03:19:05;35.72;;;22.52;;
65477;SDS011;53678;39.642;22.430;2022-10-31T03:21:46;39.83;;;24.20;;
65477;SDS011;53678;39.642;22.430;2022-10-31T03:24:21;36.28;;;22.38;;
65477;SDS011;53678;39.642;22.430;2022-10-31T03:26:53;36.60;;;23.30;;
65477;SDS011;53678;39.642;22.430;2022-10-31T03:29:23;41.50;;;22.73;;
65477;SDS011;53678;39.642;22.430;2022-10-31T03:31:55;40.97;;;23.17;;
65477;SDS011;53678;39.642;22.430;2022-10-31T03:34:25;37.83;;;21.70;;
65477;SDS011;53678;39.642;22.430;2022-10-31T03:36:54;36.63;;;21.95;;
65477;SDS011;53678;39.642;22.430;2022-10-31T03:39:22;44.60;;;22.73;;
65477;SDS011;53678;39.642;22.430;2022-10-31T03:41:53;42.35;;;22.00;;
65477;SDS011;53678;39.642;22.430;2022-10-31T03:44:24;41.95;;;23.40;;
65477;SDS011;53678;39.642;22.430;2022-10-31T03:47:00;43.33;;;24.52;;
65477;SDS011;53678;39.642;22.430;2022-10-31T03:49:29;39.05;;;22.98;;
65477;SDS011;53678;39.642;22.430;2022-10-31T03:51:58;33.15;;;21.00;;
65477;SDS011;53678;39.642;22.430;2022-10-31T03:55:07;38.80;;;21.15;;
65477;SDS011;53678;39.642;22.430;2022-10-31T03:57:43;36.92;;;22.10;;
65477;SDS011;53678;39.642;22.430;2022-10-31T04:00:26;33.75;;;20.80;;
65477;SDS011;53678;39.642;22.430;2022-10-31T04:05:30;37.30;;;22.10;;
65477;SDS011;53678;39.642;22.430;2022-10-31T04:08:00;33.00;;;21.08;;
65477;SDS011;53678;39.642;22.430;2022-10-31T04:10:30;36.67;;;22.63;;
65477;SDS011;53678;39.642;22.430;2022-10-31T04:13:03;29.73;;;20.52;;
65477;SDS011;53678;39.642;22.430;2022-10-31T04:15:39;38.92;;;21.35;;
65477;SDS011;53678;39.642;22.430;2022-10-31T04:18:08;38.30;;;23.63;;
65477;SDS011;53678;39.642;22.430;2022-10-31T04:20:40;39.92;;;22.88;;
65477;SDS011;53678;39.642;22.430;2022-10-31T04:23:18;42.08;;;24.63;;
65477;SDS011;53678;39.642;22.430;2022-10-31T04:25:48;45.30;;;24.52;;
65477;SDS011;53678;39.642;22.430;2022-10-31T04:28:16;43.55;;;24.35;;
65477;SDS011;53678;39.642;22.430;2022-10-31T04:30:42;38.28;;;22.27;;
65477;SDS011;53678;39.642;22.430;2022-10-31T04:33:08;78.85;;;27.88;;
65477;SDS011;53678;39.642;22.430;2022-10-31T04:35:34;52.88;;;24.05;;
65477;SDS011;53678;39.642;22.430;2022-10-31T04:38:00;42.70;;;23.48;;
65477;SDS011;53678;39.642;22.430;2022-10-31T04:40:26;42.65;;;23.52;;
65477;SDS011;53678;39.642;22.430;2022-10-31T04:42:55;44.72;;;23.00;;
65477;SDS011;53678;39.642;22.430;2022-10-31T04:45:21;49.85;;;22.50;;
65477;SDS011;53678;39.642;22.430;2022-10-31T04:47:50;33.10;;;21.23;;
65477;SDS011;53678;39.642;22.430;2022-10-31T04:50:16;39.75;;;22.13;;
65477;SDS011;53678;39.642;22.430;2022-10-31T04:52:44;35.88;;;20.15;;
65477;SDS011;53678;39.642;22.430;2022-10-31T04:55:14;41.10;;;21.05;;
65477;SDS011;53678;39.642;22.430;2022-10-31T04:57:59;42.20;;;20.92;;
65477;SDS011;53678;39.642;22.430;2022-10-31T05:00:26;39.47;;;21.23;;
65477;SDS011;53678;39.642;22.430;2022-10-31T05:02:56;40.08;;;21.30;;
65477;SDS011;53678;39.642;22.430;2022-10-31T05:05:29;45.72;;;23.92;;
65477;SDS011;53678;39.642;22.430;2022-10-31T05:07:59;45.40;;;23.88;;
65477;SDS011;53678;39.642;22.430;2022-10-31T05:10:26;39.42;;;22.20;;
65477;SDS011;53678;39.642;22.430;2022-10-31T05:12:58;37.08;;;22.50;;
65477;SDS011;53678;39.642;22.430;2022-10-31T05:15:44;35.30;;;21.48;;
65477;SDS011;53678;39.642;22.430;2022-10-31T05:18:28;42.47;;;21.42;;
65477;SDS011;53678;39.642;22.430;2022-10-31T05:21:12;40.15;;;22.52;;
65477;SDS011;53678;39.642;22.430;2022-10-31T05:23:46;42.97;;;22.38;;
65477;SDS011;53678;39.642;22.430;2022-10-31T05:26:13;44.35;;;23.13;;
65477;SDS011;53678;39.642;22.430;2022-10-31T05:28:39;35.45;;;21.05;;
65477;SDS011;53678;39.642;22.430;2022-10-31T05:31:05;47.20;;;22.88;;
65477;SDS011;53678;39.642;22.430;2022-10-31T05:33:31;43.00;;;23.55;;
65477;SDS011;53678;39.642;22.430;2022-10-31T05:36:15;39.78;;;21.30;;
65477;SDS011;53678;39.642;22.430;2022-10-31T05:39:01;41.22;;;21.67;;
65477;SDS011;53678;39.642;22.430;2022-10-31T05:41:33;33.42;;;19.20;;
65477;SDS011;53678;39.642;22.430;2022-10-31T05:44:05;32.08;;;18.60;;
65477;SDS011;53678;39.642;22.430;2022-10-31T05:46:42;33.38;;;18.27;;
65477;SDS011;53678;39.642;22.430;2022-10-31T05:49:27;30.48;;;18.08;;
65477;SDS011;53678;39.642;22.430;2022-10-31T05:52:11;27.50;;;17.05;;
65477;SDS011;53678;39.642;22.430;2022-10-31T05:54:45;33.17;;;17.45;;
65477;SDS011;53678;39.642;22.430;2022-10-31T05:57:11;25.52;;;16.38;;
65477;SDS011;53678;39.642;22.430;2022-10-31T05:59:37;27.27;;;15.45;;
65477;SDS011;53678;39.642;22.430;2022-10-31T06:02:03;29.33;;;15.82;;
65477;SDS011;53678;39.642;22.430;2022-10-31T06:04:47;25.38;;;15.20;;
65477;SDS011;53678;39.642;22.430;2022-10-31T06:07:13;27.27;;;14.88;;
65477;SDS011;53678;39.642;22.430;2022-10-31T06:09:39;26.55;;;15.35;;
65477;SDS011;53678;39.642;22.430;2022-10-31T06:12:06;27.75;;;17.15;;
65477;SDS011;53678;39.642;22.430;2022-10-31T06:14:50;62.53;;;43.75;;
65477;SDS011;53678;39.642;22.430;2022-10-31T06:17:16;54.22;;;37.20;;
65477;SDS011;53678;39.642;22.430;2022-10-31T06:20:08;46.42;;;30.02;;
65477;SDS011;53678;39.642;22.430;2022-10-31T06:22:41;45.63;;;30.13;;
65477;SDS011;53678;39.642;22.430;2022-10-31T06:25:07;44.05;;;26.42;;
65477;SDS011;53678;39.642;22.430;2022-10-31T06:27:36;39.47;;;23.83;;
65477;SDS011;53678;39.642;22.430;2022-10-31T06:30:09;35.78;;;23.27;;
65477;SDS011;53678;39.642;22.430;2022-10-31T06:32:38;32.10;;;21.05;;
65477;SDS011;53678;39.642;22.430;2022-10-31T06:35:05;30.50;;;21.10;;
65477;SDS011;53678;39.642;22.430;2022-10-31T06:37:33;37.72;;;23.08;;
65477;SDS011;53678;39.642;22.430;2022-10-31T06:40:11;46.38;;;23.20;;
65477;SDS011;53678;39.642;22.430;2022-10-31T06:43:00;42.60;;;21.77;;
65477;SDS011;53678;39.642;22.430;2022-10-31T06:45:28;32.67;;;21.55;;
65477;SDS011;53678;39.642;22.430;2022-10-31T06:48:13;35.03;;;20.85;;
65477;SDS011;53678;39.642;22.430;2022-10-31T06:51:00;36.50;;;22.25;;
65477;SDS011;53678;39.642;22.430;2022-10-31T06:53:27;41.13;;;22.02;;
65477;SDS011;53678;39.642;22.430;2022-10-31T06:55:55;38.40;;;23.92;;
65477;SDS011;53678;39.642;22.430;2022-10-31T06:58:22;37.63;;;25.60;;
65477;SDS011;53678;39.642;22.430;2022-10-31T07:00:48;42.47;;;27.63;;
65477;SDS011;53678;39.642;22.430;2022-10-31T07:03:15;40.60;;;26.15;;
65477;SDS011;53678;39.642;22.430;2022-10-31T07:05:42;45.97;;;30.92;;
65477;SDS011;53678;39.642;22.430;2022-10-31T07:08:10;41.15;;;26.42;;
65477;SDS011;53678;39.642;22.430;2022-10-31T07:10:38;48.15;;;29.05;;
65477;SDS011;53678;39.642;22.430;2022-10-31T07:13:05;47.75;;;29.65;;
65477;SDS011;53678;39.642;22.430;2022-10-31T07:15:37;45.15;;;29.15;;
65477;SDS011;53678;39.642;22.430;2022-10-31T07:18:04;41.58;;;27.05;;
65477;SDS011;53678;39.642;22.430;2022-10-31T07:20:33;41.17;;;25.83;;
65477;SDS011;53678;39.642;22.430;2022-10-31T07:22:58;43.92;;;27.35;;
65477;SDS011;53678;39.642;22.430;2022-10-31T07:25:26;44.30;;;27.67;;
65477;SDS011;53678;39.642;22.430;2022-10-31T07:28:13;50.33;;;30.05;;
65477;SDS011;53678;39.642;22.430;2022-10-31T07:30:48;41.35;;;29.35;;
65477;SDS011;53678;39.642;22.430;2022-10-31T07:33:18;44.65;;;29.38;;
65477;SDS011;53678;39.642;22.430;2022-10-31T07:36:02;48.10;;;27.77;;
65477;SDS011;53678;39.642;22.430;2022-10-31T07:38:30;47.70;;;27.38;;
65477;SDS011;53678;39.642;22.430;2022-10-31T07:40:59;42.72;;;25.30;;
65477;SDS011;53678;39.642;22.430;2022-10-31T07:43:27;47.20;;;26.70;;
65477;SDS011;53678;39.642;22.430;2022-10-31T07:46:12;46.15;;;30.08;;
65477;SDS011;53678;39.642;22.430;2022-10-31T07:48:56;42.10;;;29.15;;
65477;SDS011;53678;39.642;22.430;2022-10-31T07:51:52;43.60;;;30.83;;
65477;SDS011;53678;39.642;22.430;2022-10-31T07:54:28;43.88;;;28.88;;
65477;SDS011;53678;39.642;22.430;2022-10-31T07:56:54;37.95;;;25.67;;
65477;SDS011;53678;39.642;22.430;2022-10-31T07:59:21;36.78;;;25.45;;
65477;SDS011;53678;39.642;22.430;2022-10-31T08:01:47;36.63;;;25.38;;
65477;SDS011;53678;39.642;22.430;2022-10-31T08:04:42;36.35;;;24.98;;
65477;SDS011;53678;39.642;22.430;2022-10-31T08:07:27;43.38;;;24.40;;
65477;SDS011;53678;39.642;22.430;2022-10-31T08:09:59;37.65;;;21.85;;
65477;SDS011;53678;39.642;22.430;2022-10-31T08:12:29;37.40;;;23.70;;
65477;SDS011;53678;39.642;22.430;2022-10-31T08:14:54;46.58;;;23.92;;
65477;SDS011;53678;39.642;22.430;2022-10-31T08:25:21;29.23;;;19.73;;
65477;SDS011;53678;39.642;22.430;2022-10-31T08:27:50;34.40;;;21.25;;
65477;SDS011;53678;39.642;22.430;2022-10-31T08:30:20;32.97;;;19.95;;
65477;SDS011;53678;39.642;22.430;2022-10-31T08:33:12;30.67;;;19.10;;
65477;SDS011;53678;39.642;22.430;2022-10-31T08:35:58;33.50;;;19.48;;
65477;SDS011;53678;39.642;22.430;2022-10-31T08:38:48;28.05;;;16.48;;
65477;SDS011;53678;39.642;22.430;2022-10-31T08:41:15;27.80;;;16.58;;
65477;SDS011;53678;39.642;22.430;2022-10-31T08:43:41;26.52;;;16.05;;
65477;SDS011;53678;39.642;22.430;2022-10-31T08:46:07;30.65;;;16.25;;
65477;SDS011;53678;39.642;22.430;2022-10-31T08:48:33;25.27;;;16.25;;
65477;SDS011;53678;39.642;22.430;2022-10-31T08:51:01;30.90;;;16.95;;
65477;SDS011;53678;39.642;22.430;2022-10-31T08:53:28;24.42;;;15.80;;
65477;SDS011;53678;39.642;22.430;2022-10-31T08:56:17;20.42;;;14.15;;
65477;SDS011;53678;39.642;22.430;2022-10-31T08:58:44;23.30;;;13.90;;
65477;SDS011;53678;39.642;22.430;2022-10-31T09:01:11;21.02;;;14.30;;
65477;SDS011;53678;39.642;22.430;2022-10-31T09:03:37;22.90;;;13.07;;
65477;SDS011;53678;39.642;22.430;2022-10-31T09:06:03;20.48;;;13.20;;
65477;SDS011;53678;39.642;22.430;2022-10-31T09:08:34;20.25;;;12.98;;
65477;SDS011;53678;39.642;22.430;2022-10-31T09:11:01;24.63;;;13.02;;
65477;SDS011;53678;39.642;22.430;2022-10-31T09:13:45;21.67;;;13.50;;
65477;SDS011;53678;39.642;22.430;2022-10-31T09:16:34;22.90;;;12.70;;
65477;SDS011;53678;39.642;22.430;2022-10-31T09:19:00;20.58;;;13.07;;
65477;SDS011;53678;39.642;22.430;2022-10-31T09:21:26;26.90;;;13.63;;
65477;SDS011;53678;39.642;22.430;2022-10-31T09:27:33;19.90;;;13.00;;
65477;SDS011;53678;39.642;22.430;2022-10-31T09:29:59;21.23;;;12.82;;
65477;SDS011;53678;39.642;22.430;2022-10-31T09:32:25;20.23;;;13.23;;
65477;SDS011;53678;39.642;22.430;2022-10-31T09:34:51;22.17;;;13.00;;
65477;SDS011;53678;39.642;22.430;2022-10-31T09:37:20;21.42;;;12.93;;
65477;SDS011;53678;39.642;22.430;2022-10-31T09:39:46;30.52;;;16.85;;
65477;SDS011;53678;39.642;22.430;2022-10-31T09:42:24;20.90;;;12.88;;
65477;SDS011;53678;39.642;22.430;2022-10-31T09:51:37;25.77;;;15.02;;
65477;SDS011;53678;39.642;22.430;2022-10-31T09:54:20;28.27;;;18.65;;
65477;SDS011;53678;39.642;22.430;2022-10-31T09:59:21;31.42;;;20.10;;
65477;SDS011;53678;39.642;22.430;2022-10-31T10:07:26;28.50;;;18.23;;
65477;SDS011;53678;39.642;22.430;2022-10-31T10:10:30;21.45;;;12.68;;
65477;SDS011;53678;39.642;22.430;2022-10-31T10:13:25;20.70;;;12.13;;
65477;SDS011;53678;39.642;22.430;2022-10-31T10:16:22;19.27;;;12.90;;
65477;SDS011;53678;39.642;22.430;2022-10-31T10:22:09;20.08;;;12.05;;
65477;SDS011;53678;39.642;22.430;2022-10-31T10:33:23;23.23;;;13.52;;
65477;SDS011;53678;39.642;22.430;2022-10-31T10:35:52;21.52;;;12.82;;
65477;SDS011;53678;39.642;22.430;2022-10-31T10:40:54;18.83;;;10.38;;
65477;SDS011;53678;39.642;22.430;2022-10-31T10:43:36;17.88;;;11.13;;
65477;SDS011;53678;39.642;22.430;2022-10-31T10:52:40;17.80;;;9.25;;
65477;SDS011;53678;39.642;22.430;2022-10-31T10:57:59;17.05;;;8.38;;
65477;SDS011;53678;39.642;22.430;2022-10-31T11:00:31;14.65;;;7.82;;
65477;SDS011;53678;39.642;22.430;2022-10-31T11:03:00;16.73;;;7.72;;
65477;SDS011;53678;39.642;22.430;2022-10-31T11:08:28;12.48;;;7.38;;
65477;SDS011;53678;39.642;22.430;2022-10-31T11:11:07;14.70;;;8.93;;
65477;SDS011;53678;39.642;22.430;2022-10-31T11:13:41;12.77;;;7.72;;
65477;SDS011;53678;39.642;22.430;2022-10-31T11:16:30;14.32;;;7.75;;
65477;SDS011;53678;39.642;22.430;2022-10-31T11:18:54;15.45;;;7.78;;
65477;SDS011;53678;39.642;22.430;2022-10-31T11:21:35;19.33;;;7.50;;
65477;SDS011;53678;39.642;22.430;2022-10-31T11:26:39;16.88;;;8.40;;
65477;SDS011;53678;39.642;22.430;2022-10-31T11:29:17;10.98;;;7.05;;
65477;SDS011;53678;39.642;22.430;2022-10-31T11:31:45;13.80;;;8.13;;
65477;SDS011;53678;39.642;22.430;2022-10-31T11:34:19;10.98;;;8.18;;
65477;SDS011;53678;39.642;22.430;2022-10-31T11:37:02;21.48;;;9.82;;
65477;SDS011;53678;39.642;22.430;2022-10-31T11:39:38;15.48;;;8.55;;
65477;SDS011;53678;39.642;22.430;2022-10-31T11:42:07;12.02;;;8.10;;
65477;SDS011;53678;39.642;22.430;2022-10-31T11:44:33;12.77;;;6.90;;
65477;SDS011;53678;39.642;22.430;2022-10-31T11:47:01;19.35;;;8.13;;
65477;SDS011;53678;39.642;22.430;2022-10-31T11:49:39;19.95;;;7.70;;
65477;SDS011;53678;39.642;22.430;2022-10-31T11:52:14;16.23;;;7.20;;
65477;SDS011;53678;39.642;22.430;2022-10-31T11:57:26;12.90;;;7.15;;
65477;SDS011;53678;39.642;22.430;2022-10-31T11:59:57;11.98;;;7.20;;
65477;SDS011;53678;39.642;22.430;2022-10-31T12:02:48;14.52;;;6.88;;
65477;SDS011;53678;39.642;22.430;2022-10-31T12:05:18;12.95;;;7.63;;
65477;SDS011;53678;39.642;22.430;2022-10-31T12:07:49;12.18;;;7.20;;
65477;SDS011;53678;39.642;22.430;2022-10-31T12:10:15;12.90;;;6.47;;
65477;SDS011;53678;39.642;22.430;2022-10-31T12:12:47;12.63;;;6.15;;
65477;SDS011;53678;39.642;22.430;2022-10-31T12:15:36;13.20;;;6.40;;
65477;SDS011;53678;39.642;22.430;2022-10-31T12:18:17;8.93;;;5.40;;
65477;SDS011;53678;39.642;22.430;2022-10-31T12:32:12;11.80;;;5.10;;
65477;SDS011;53678;39.642;22.430;2022-10-31T12:34:58;12.57;;;5.43;;
65477;SDS011;53678;39.642;22.430;2022-10-31T12:45:54;11.40;;;4.85;;
65477;SDS011;53678;39.642;22.430;2022-10-31T12:59:24;11.43;;;5.47;;
65477;SDS011;53678;39.642;22.430;2022-10-31T13:02:00;11.70;;;5.38;;
65477;SDS011;53678;39.642;22.430;2022-10-31T13:07:14;12.10;;;6.90;;
65477;SDS011;53678;39.642;22.430;2022-10-31T13:12:19;13.40;;;6.15;;
65477;SDS011;53678;39.642;22.430;2022-10-31T13:14:49;15.30;;;7.22;;
65477;SDS011;53678;39.642;22.430;2022-10-31T13:17:21;19.50;;;6.43;;
65477;SDS011;53678;39.642;22.430;2022-10-31T13:22:33;11.05;;;6.82;;
65477;SDS011;53678;39.642;22.430;2022-10-31T13:27:48;22.67;;;7.80;;
65477;SDS011;53678;39.642;22.430;2022-10-31T13:30:23;20.48;;;6.57;;
65477;SDS011;53678;39.642;22.430;2022-10-31T13:32:55;11.63;;;5.63;;
65477;SDS011;53678;39.642;22.430;2022-10-31T13:41:00;13.45;;;5.65;;
65477;SDS011;53678;39.642;22.430;2022-10-31T13:46:23;11.77;;;5.63;;
65477;SDS011;53678;39.642;22.430;2022-10-31T13:48:59;12.68;;;4.32;;
65477;SDS011;53678;39.642;22.430;2022-10-31T13:51:26;9.30;;;4.30;;
65477;SDS011;53678;39.642;22.430;2022-10-31T13:56:21;11.63;;;4.43;;
65477;SDS011;53678;39.642;22.430;2022-10-31T13:59:37;11.63;;;4.05;;
65477;SDS011;53678;39.642;22.430;2022-10-31T14:01:50;8.35;;;3.63;;
65477;SDS011;53678;39.642;22.430;2022-10-31T14:04:24;11.48;;;3.92;;
65477;SDS011;53678;39.642;22.430;2022-10-31T14:06:55;7.88;;;4.15;;
65477;SDS011;53678;39.642;22.430;2022-10-31T14:12:12;9.70;;;4.30;;
65477;SDS011;53678;39.642;22.430;2022-10-31T14:14:51;10.93;;;4.55;;
65477;SDS011;53678;39.642;22.430;2022-10-31T14:17:23;14.73;;;4.93;;
65477;SDS011;53678;39.642;22.430;2022-10-31T14:22:37;12.48;;;4.82;;
65477;SDS011;53678;39.642;22.430;2022-10-31T14:28:22;15.85;;;4.78;;
65477;SDS011;53678;39.642;22.430;2022-10-31T14:30:59;11.85;;;4.07;;
65477;SDS011;53678;39.642;22.430;2022-10-31T14:33:26;9.05;;;4.22;;
65477;SDS011;53678;39.642;22.430;2022-10-31T14:42:37;11.02;;;4.30;;
65477;SDS011;53678;39.642;22.430;2022-10-31T14:50:37;13.50;;;3.17;;
65477;SDS011;53678;39.642;22.430;2022-10-31T14:53:12;11.73;;;2.83;;
65477;SDS011;53678;39.642;22.430;2022-10-31T14:55:45;10.80;;;4.03;;
65477;SDS011;53678;39.642;22.430;2022-10-31T14:58:37;11.88;;;5.22;;
65477;SDS011;53678;39.642;22.430;2022-10-31T15:01:05;6.68;;;2.60;;
65477;SDS011;53678;39.642;22.430;2022-10-31T15:03:36;5.88;;;2.60;;
65477;SDS011;53678;39.642;22.430;2022-10-31T15:06:14;10.60;;;2.95;;
65477;SDS011;53678;39.642;22.430;2022-10-31T15:08:45;11.00;;;3.05;;
65477;SDS011;53678;39.642;22.430;2022-10-31T15:13:47;7.35;;;3.15;;
65477;SDS011;53678;39.642;22.430;2022-10-31T15:18:53;7.47;;;2.90;;
65477;SDS011;53678;39.642;22.430;2022-10-31T15:21:22;8.73;;;3.13;;
65477;SDS011;53678;39.642;22.430;2022-10-31T15:23:50;9.65;;;3.22;;
65477;SDS011;53678;39.642;22.430;2022-10-31T15:26:19;10.35;;;3.60;;
65477;SDS011;53678;39.642;22.430;2022-10-31T15:28:58;9.75;;;3.25;;
65477;SDS011;53678;39.642;22.430;2022-10-31T15:31:25;10.25;;;3.55;;
65477;SDS011;53678;39.642;22.430;2022-10-31T15:33:51;7.63;;;2.97;;
65477;SDS011;53678;39.642;22.430;2022-10-31T15:36:20;10.60;;;3.85;;
65477;SDS011;53678;39.642;22.430;2022-10-31T15:38:48;7.60;;;3.17;;
65477;SDS011;53678;39.642;22.430;2022-10-31T15:41:20;10.10;;;3.55;;
65477;SDS011;53678;39.642;22.430;2022-10-31T15:43:54;6.95;;;3.25;;
65477;SDS011;53678;39.642;22.430;2022-10-31T15:46:22;8.60;;;3.08;;
65477;SDS011;53678;39.642;22.430;2022-10-31T15:48:49;9.63;;;3.50;;
65477;SDS011;53678;39.642;22.430;2022-10-31T15:51:15;5.53;;;3.10;;
65477;SDS011;53678;39.642;22.430;2022-10-31T15:53:45;9.07;;;3.30;;
65477;SDS011;53678;39.642;22.430;2022-10-31T15:56:20;11.85;;;3.78;;
65477;SDS011;53678;39.642;22.430;2022-10-31T15:58:51;8.90;;;3.20;;
65477;SDS011;53678;39.642;22.430;2022-10-31T16:01:22;14.65;;;4.43;;
65477;SDS011;53678;39.642;22.430;2022-10-31T16:06:30;15.07;;;4.90;;
65477;SDS011;53678;39.642;22.430;2022-10-31T16:08:57;8.63;;;4.30;;
65477;SDS011;53678;39.642;22.430;2022-10-31T16:14:13;12.43;;;6.50;;
65477;SDS011;53678;39.642;22.430;2022-10-31T16:16:48;10.25;;;5.47;;
65477;SDS011;53678;39.642;22.430;2022-10-31T16:19:21;14.40;;;6.63;;
65477;SDS011;53678;39.642;22.430;2022-10-31T16:22:14;28.33;;;12.02;;
65477;SDS011;53678;39.642;22.430;2022-10-31T16:25:14;40.08;;;21.60;;
65477;SDS011;53678;39.642;22.430;2022-10-31T16:27:49;30.08;;;15.15;;
65477;SDS011;53678;39.642;22.430;2022-10-31T16:35:58;31.42;;;18.65;;
65477;SDS011;53678;39.642;22.430;2022-10-31T16:38:26;20.20;;;10.60;;
65477;SDS011;53678;39.642;22.430;2022-10-31T16:40:52;21.95;;;8.80;;
65477;SDS011;53678;39.642;22.430;2022-10-31T16:43:18;22.48;;;10.27;;
65477;SDS011;53678;39.642;22.430;2022-10-31T16:45:48;29.98;;;16.10;;
65477;SDS011;53678;39.642;22.430;2022-10-31T16:48:17;25.70;;;13.05;;
65477;SDS011;53678;39.642;22.430;2022-10-31T16:50:46;14.20;;;8.90;;
65477;SDS011;53678;39.642;22.430;2022-10-31T16:53:13;18.92;;;9.50;;
65477;SDS011;53678;39.642;22.430;2022-10-31T16:58:33;20.13;;;9.93;;
65477;SDS011;53678;39.642;22.430;2022-10-31T17:01:01;22.88;;;11.40;;
65477;SDS011;53678;39.642;22.430;2022-10-31T17:03:31;19.98;;;11.57;;
65477;SDS011;53678;39.642;22.430;2022-10-31T17:05:56;23.88;;;10.65;;
65477;SDS011;53678;39.642;22.430;2022-10-31T17:08:22;20.20;;;10.77;;
65477;SDS011;53678;39.642;22.430;2022-10-31T17:10:53;20.20;;;10.13;;
65477;SDS011;53678;39.642;22.430;2022-10-31T17:13:21;25.60;;;12.98;;
65477;SDS011;53678;39.642;22.430;2022-10-31T17:16:06;26.25;;;14.80;;
65477;SDS011;53678;39.642;22.430;2022-10-31T17:18:32;25.50;;;16.48;;
65477;SDS011;53678;39.642;22.430;2022-10-31T17:20:59;23.50;;;16.48;;
65477;SDS011;53678;39.642;22.430;2022-10-31T17:23:30;32.05;;;18.17;;
65477;SDS011;53678;39.642;22.430;2022-10-31T17:25:57;35.78;;;17.20;;
65477;SDS011;53678;39.642;22.430;2022-10-31T17:28:23;38.40;;;21.05;;
65477;SDS011;53678;39.642;22.430;2022-10-31T17:30:53;34.45;;;18.55;;
65477;SDS011;53678;39.642;22.430;2022-10-31T17:33:20;28.95;;;16.30;;
65477;SDS011;53678;39.642;22.430;2022-10-31T17:35:46;32.63;;;15.45;;
65477;SDS011;53678;39.642;22.430;2022-10-31T17:38:12;31.02;;;13.57;;
65477;SDS011;53678;39.642;22.430;2022-10-31T17:40:39;26.13;;;13.82;;
65477;SDS011;53678;39.642;22.430;2022-10-31T17:43:07;28.48;;;15.05;;
65477;SDS011;53678;39.642;22.430;2022-10-31T17:45:40;28.75;;;13.57;;
65477;SDS011;53678;39.642;22.430;2022-10-31T17:48:08;26.85;;;14.40;;
65477;SDS011;53678;39.642;22.430;2022-10-31T17:50:35;28.55;;;15.65;;